OAL220 LGST-LGIR
Flight info
| Callsign | OAL220 |
|---|---|
| Flight time | 0h 23m |
| Altitude | 12000 |
| Route | IRA |
| Aircraft | AT76/M-SDFGIRY/S |
Departure
| Time | 2026-04-21 13:13 |
|---|---|
| Airport | Sitia Airport (LGST) |
Arrival
| Time | 2026-04-21 13:36 |
|---|---|
| Airport | Heraklion International Nikos Kazantzakis Airport (LGIR) |
| Time | Latitude | Longitude | Altitude | Speed | Heading |
|---|---|---|---|---|---|
| 2026-04-21 12:57 | 35.21603 | 26.09788 | 357 ft | 0 kts | 91° |
| 2026-04-21 13:08 | 35.21590 | 26.09827 | 360 ft | 7 kts | 144° |
| 2026-04-21 13:09 | 35.21563 | 26.09819 | 361 ft | 4 kts | 217° |
| 2026-04-21 13:09 | 35.21521 | 26.09807 | 358 ft | 8 kts | 172° |
| 2026-04-21 13:09 | 35.21472 | 26.09812 | 365 ft | 8 kts | 177° |
| 2026-04-21 13:09 | 35.21403 | 26.09798 | 361 ft | 12 kts | 203° |
| 2026-04-21 13:10 | 35.21346 | 26.09727 | 364 ft | 11 kts | 230° |
| 2026-04-21 13:10 | 35.21300 | 26.09659 | 369 ft | 10 kts | 230° |
| 2026-04-21 13:10 | 35.21258 | 26.09596 | 372 ft | 10 kts | 231° |
| 2026-04-21 13:10 | 35.21213 | 26.09530 | 374 ft | 11 kts | 231° |
| 2026-04-21 13:11 | 35.21166 | 26.09461 | 377 ft | 10 kts | 229° |
| 2026-04-21 13:11 | 35.21121 | 26.09395 | 381 ft | 10 kts | 231° |
| 2026-04-21 13:11 | 35.21078 | 26.09328 | 384 ft | 10 kts | 241° |
| 2026-04-21 13:11 | 35.21063 | 26.09247 | 385 ft | 9 kts | 236° |
| 2026-04-21 13:12 | 35.21032 | 26.09265 | 384 ft | 4 kts | 50° |
| 2026-04-21 13:12 | 35.21045 | 26.09282 | 384 ft | 0 kts | 52° |
| 2026-04-21 13:12 | 35.21127 | 26.09403 | 381 ft | 48 kts | 50° |
| 2026-04-21 13:13 | 35.21479 | 26.09921 | 357 ft | 108 kts | 50° |
| 2026-04-21 13:13 | 35.22013 | 26.10699 | 643 ft | 122 kts | 44° |
| 2026-04-21 13:13 | 35.22575 | 26.11477 | 1191 ft | 123 kts | 47° |
| 2026-04-21 13:13 | 35.23084 | 26.12348 | 1689 ft | 128 kts | 54° |
| 2026-04-21 13:14 | 35.23586 | 26.13255 | 2174 ft | 129 kts | 48° |
| 2026-04-21 13:14 | 35.24376 | 26.13581 | 2605 ft | 125 kts | 338° |
| 2026-04-21 13:14 | 35.24919 | 26.12841 | 3068 ft | 118 kts | 294° |
| 2026-04-21 13:14 | 35.25313 | 26.11952 | 3553 ft | 119 kts | 297° |
| 2026-04-21 13:15 | 35.25700 | 26.11060 | 4045 ft | 118 kts | 289° |
| 2026-04-21 13:15 | 35.25962 | 26.10109 | 4526 ft | 117 kts | 285° |
| 2026-04-21 13:15 | 35.26192 | 26.09158 | 5034 ft | 116 kts | 285° |
| 2026-04-21 13:15 | 35.26414 | 26.08217 | 5523 ft | 114 kts | 284° |
| 2026-04-21 13:16 | 35.26637 | 26.07286 | 5998 ft | 113 kts | 285° |
| 2026-04-21 13:16 | 35.26868 | 26.06369 | 6466 ft | 112 kts | 286° |
| 2026-04-21 13:16 | 35.27101 | 26.05476 | 6895 ft | 111 kts | 287° |
| 2026-04-21 13:16 | 35.27341 | 26.04571 | 7299 ft | 112 kts | 288° |
| 2026-04-21 13:17 | 35.27584 | 26.03660 | 7694 ft | 113 kts | 288° |
| 2026-04-21 13:17 | 35.27831 | 26.02742 | 8097 ft | 114 kts | 289° |
| 2026-04-21 13:17 | 35.28081 | 26.01819 | 8502 ft | 114 kts | 289° |
| 2026-04-21 13:17 | 35.28331 | 26.00893 | 8906 ft | 115 kts | 289° |
| 2026-04-21 13:18 | 35.28583 | 25.99962 | 9308 ft | 116 kts | 289° |
| 2026-04-21 13:18 | 35.28837 | 25.99026 | 9713 ft | 117 kts | 289° |
| 2026-04-21 13:18 | 35.29097 | 25.98063 | 10089 ft | 120 kts | 290° |
| 2026-04-21 13:18 | 35.29360 | 25.97096 | 10470 ft | 120 kts | 290° |
| 2026-04-21 13:19 | 35.29622 | 25.96127 | 10865 ft | 120 kts | 290° |
| 2026-04-21 13:19 | 35.29884 | 25.95160 | 11260 ft | 120 kts | 290° |
| 2026-04-21 13:19 | 35.30147 | 25.94193 | 11652 ft | 120 kts | 290° |
| 2026-04-21 13:19 | 35.30417 | 25.93199 | 11917 ft | 132 kts | 290° |
| 2026-04-21 13:20 | 35.30750 | 25.92035 | 11982 ft | 157 kts | 291° |
| 2026-04-21 13:20 | 35.31146 | 25.90681 | 12010 ft | 179 kts | 290° |
| 2026-04-21 13:20 | 35.31570 | 25.89165 | 12015 ft | 196 kts | 290° |
| 2026-04-21 13:20 | 35.32015 | 25.87530 | 12014 ft | 208 kts | 289° |
| 2026-04-21 13:21 | 35.32470 | 25.85840 | 12015 ft | 209 kts | 289° |
| 2026-04-21 13:21 | 35.32924 | 25.84164 | 12005 ft | 205 kts | 289° |
| 2026-04-21 13:21 | 35.33364 | 25.82529 | 12010 ft | 200 kts | 289° |
| 2026-04-21 13:21 | 35.33790 | 25.80940 | 12006 ft | 197 kts | 289° |
| 2026-04-21 13:22 | 35.34216 | 25.79356 | 12008 ft | 195 kts | 289° |
| 2026-04-21 13:22 | 35.34639 | 25.77788 | 12008 ft | 193 kts | 289° |
| 2026-04-21 13:22 | 35.35058 | 25.76234 | 12008 ft | 192 kts | 289° |
| 2026-04-21 13:22 | 35.35476 | 25.74688 | 12014 ft | 191 kts | 289° |
| 2026-04-21 13:23 | 35.35891 | 25.73151 | 12013 ft | 190 kts | 289° |
| 2026-04-21 13:23 | 35.36304 | 25.71617 | 11946 ft | 192 kts | 289° |
| 2026-04-21 13:23 | 35.36743 | 25.69990 | 11496 ft | 207 kts | 289° |
| 2026-04-21 13:23 | 35.37200 | 25.68288 | 11072 ft | 212 kts | 289° |
| 2026-04-21 13:24 | 35.37665 | 25.66559 | 10668 ft | 215 kts | 289° |
| 2026-04-21 13:24 | 35.38132 | 25.64811 | 10273 ft | 217 kts | 289° |
| 2026-04-21 13:24 | 35.38603 | 25.63052 | 9881 ft | 218 kts | 289° |
| 2026-04-21 13:24 | 35.39077 | 25.61288 | 9460 ft | 218 kts | 289° |
| 2026-04-21 13:25 | 35.39550 | 25.59525 | 9036 ft | 218 kts | 289° |
| 2026-04-21 13:25 | 35.40021 | 25.57764 | 8626 ft | 217 kts | 288° |
| 2026-04-21 13:25 | 35.40493 | 25.56007 | 8215 ft | 217 kts | 288° |
| 2026-04-21 13:25 | 35.40962 | 25.54255 | 7814 ft | 216 kts | 288° |
| 2026-04-21 13:26 | 35.41429 | 25.52503 | 7434 ft | 216 kts | 288° |
| 2026-04-21 13:26 | 35.41896 | 25.50758 | 7054 ft | 215 kts | 287° |
| 2026-04-21 13:26 | 35.42359 | 25.49014 | 6683 ft | 215 kts | 287° |
| 2026-04-21 13:26 | 35.42824 | 25.47277 | 6298 ft | 214 kts | 287° |
| 2026-04-21 13:27 | 35.43286 | 25.45539 | 5901 ft | 214 kts | 287° |
| 2026-04-21 13:27 | 35.43748 | 25.43808 | 5509 ft | 213 kts | 287° |
| 2026-04-21 13:27 | 35.44210 | 25.42083 | 5125 ft | 213 kts | 287° |
| 2026-04-21 13:27 | 35.44668 | 25.40363 | 4750 ft | 212 kts | 287° |
| 2026-04-21 13:28 | 35.45124 | 25.38649 | 4366 ft | 211 kts | 287° |
| 2026-04-21 13:28 | 35.45203 | 25.36894 | 3945 ft | 211 kts | 255° |
| 2026-04-21 13:28 | 35.44435 | 25.35368 | 3553 ft | 212 kts | 233° |
| 2026-04-21 13:28 | 35.43460 | 25.34013 | 3188 ft | 212 kts | 229° |
| 2026-04-21 13:29 | 35.42457 | 25.32747 | 3087 ft | 200 kts | 225° |
| 2026-04-21 13:29 | 35.41204 | 25.32127 | 3039 ft | 199 kts | 184° |
| 2026-04-21 13:29 | 35.39936 | 25.32713 | 3027 ft | 199 kts | 141° |
| 2026-04-21 13:29 | 35.39210 | 25.34107 | 3026 ft | 193 kts | 110° |
| 2026-04-21 13:30 | 35.38825 | 25.35643 | 3030 ft | 190 kts | 106° |
| 2026-04-21 13:30 | 35.38467 | 25.37191 | 3021 ft | 188 kts | 106° |
| 2026-04-21 13:30 | 35.38099 | 25.38713 | 3024 ft | 185 kts | 107° |
| 2026-04-21 13:30 | 35.37710 | 25.40215 | 3020 ft | 185 kts | 109° |
| 2026-04-21 13:31 | 35.37292 | 25.41696 | 3017 ft | 183 kts | 111° |
| 2026-04-21 13:31 | 35.36522 | 25.42845 | 3009 ft | 175 kts | 156° |
| 2026-04-21 13:31 | 35.35378 | 25.42930 | 3013 ft | 164 kts | 205° |
| 2026-04-21 13:31 | 35.34644 | 25.41969 | 3029 ft | 156 kts | 250° |
| 2026-04-21 13:32 | 35.34515 | 25.41549 | 3024 ft | 156 kts | 252° |
| 2026-04-21 13:32 | 35.33940 | 25.39569 | 3028 ft | 156 kts | 252° |
| 2026-04-21 13:32 | 35.33569 | 25.38335 | 3041 ft | 153 kts | 249° |
| 2026-04-21 13:32 | 35.33176 | 25.37118 | 3177 ft | 155 kts | 249° |
| 2026-04-21 13:33 | 35.32764 | 25.35881 | 3180 ft | 158 kts | 250° |
| 2026-04-21 13:33 | 35.32709 | 25.34567 | 3138 ft | 156 kts | 278° |
| 2026-04-21 13:33 | 35.32850 | 25.33245 | 3118 ft | 157 kts | 277° |
| 2026-04-21 13:33 | 35.32966 | 25.31905 | 2981 ft | 162 kts | 277° |
| 2026-04-21 13:34 | 35.33090 | 25.30514 | 2974 ft | 164 kts | 276° |
| 2026-04-21 13:34 | 35.33198 | 25.29084 | 2795 ft | 166 kts | 275° |
| 2026-04-21 13:34 | 35.33304 | 25.27632 | 2282 ft | 176 kts | 276° |
| 2026-04-21 13:34 | 35.33423 | 25.26130 | 1388 ft | 185 kts | 276° |
| 2026-04-21 13:35 | 35.33507 | 25.24702 | 1087 ft | 155 kts | 275° |
| 2026-04-21 13:35 | 35.33598 | 25.23398 | 824 ft | 152 kts | 276° |
| 2026-04-21 13:35 | 35.33693 | 25.22135 | 640 ft | 144 kts | 277° |
| 2026-04-21 13:35 | 35.33756 | 25.20930 | 405 ft | 139 kts | 277° |
| 2026-04-21 13:36 | 35.33850 | 25.19784 | 248 ft | 132 kts | 276° |
| 2026-04-21 13:36 | 35.33923 | 25.18673 | 92 ft | 128 kts | 281° |
| 2026-04-21 13:36 | 35.33990 | 25.17937 | 89 ft | 50 kts | 278° |
| 2026-04-21 13:36 | 35.34038 | 25.17537 | 88 ft | 41 kts | 274° |
| 2026-04-21 13:37 | 35.34027 | 25.17227 | 86 ft | 23 kts | 268° |
| 2026-04-21 13:37 | 35.34004 | 25.17129 | 87 ft | 8 kts | 245° |
| 2026-04-21 13:37 | 35.33979 | 25.17065 | 87 ft | 8 kts | 245° |
| 2026-04-21 13:37 | 35.33941 | 25.17062 | 86 ft | 7 kts | 112° |
| 2026-04-21 13:38 | 35.33937 | 25.17136 | 87 ft | 11 kts | 95° |
| 2026-04-21 13:38 | 35.33930 | 25.17239 | 87 ft | 13 kts | 95° |
| 2026-04-21 13:38 | 35.33920 | 25.17357 | 87 ft | 12 kts | 109° |
| 2026-04-21 13:38 | 35.33858 | 25.17375 | 89 ft | 11 kts | 183° |
| 2026-04-21 13:39 | 35.33842 | 25.17369 | 88 ft | 1 kts | 214° |
| 2026-04-21 13:39 | 35.33834 | 25.17354 | 87 ft | 3 kts | 250° |
| 2026-04-21 13:39 | 35.33839 | 25.17332 | 87 ft | 3 kts | 295° |
| 2026-04-21 13:39 | 35.33848 | 25.17315 | 89 ft | 1 kts | 319° |
| 2026-04-21 13:40 | 35.33859 | 25.17304 | 89 ft | 3 kts | 319° |
| 2026-04-21 13:40 | 35.33869 | 25.17293 | 88 ft | 0 kts | 315° |